TimeHST,TemperatureF,Dew PointF,Humidity,Sea Level PressureIn,VisibilityMPH,Wind Direction,Wind SpeedMPH,Gust SpeedMPH,PrecipitationIn,Events,Conditions,WindDirDegrees,DateUTC
12:53 AM,73.0,64.9,76,29.92,10.0,NE,3.5,-,N/A,,Clear,50,2013-12-16 10:53:00
1:53 AM,72.0,64.9,78,29.91,10.0,NE,4.6,-,N/A,,Clear,50,2013-12-16 11:53:00
2:53 AM,72.0,64.9,78,29.91,10.0,NNE,5.8,-,N/A,,Clear,30,2013-12-16 12:53:00
3:53 AM,72.0,64.9,78,29.92,10.0,NE,5.8,-,N/A,,Partly Cloudy,40,2013-12-16 13:53:00
4:53 AM,72.0,64.9,78,29.92,10.0,NE,3.5,-,N/A,,Clear,40,2013-12-16 14:53:00
5:53 AM,71.1,64.9,81,29.92,10.0,NE,6.9,-,N/A,,Clear,40,2013-12-16 15:53:00
6:53 AM,71.1,64.0,78,29.94,10.0,NNE,9.2,-,N/A,,Clear,30,2013-12-16 16:53:00
7:53 AM,75.0,64.0,69,29.96,10.0,NE,8.1,-,N/A,,Clear,40,2013-12-16 17:53:00
8:53 AM,80.1,64.0,58,29.96,10.0,North,12.7,-,N/A,,Clear,350,2013-12-16 18:53:00
9:53 AM,81.0,64.9,58,29.96,10.0,NNW,15.0,-,N/A,,Clear,340,2013-12-16 19:53:00
10:53 AM,82.0,64.9,56,29.95,10.0,NNW,15.0,-,N/A,,Clear,330,2013-12-16 20:53:00
11:53 AM,84.9,62.1,46,29.93,10.0,NNW,15.0,-,N/A,,Clear,330,2013-12-16 21:53:00
12:53 PM,82.0,64.9,56,29.90,10.0,NW,13.8,-,N/A,,Clear,320,2013-12-16 22:53:00
1:53 PM,82.9,66.9,58,29.90,10.0,NNW,12.7,-,N/A,,Clear,340,2013-12-16 23:53:00
2:53 PM,82.0,68.0,62,29.90,10.0,NNW,12.7,-,N/A,,Partly Cloudy,330,2013-12-17 00:53:00
3:53 PM,81.0,66.9,62,29.90,10.0,WNW,10.4,-,N/A,,Clear,300,2013-12-17 01:53:00
4:53 PM,80.1,66.9,64,29.91,10.0,NW,11.5,-,N/A,,Partly Cloudy,320,2013-12-17 02:53:00
5:53 PM,78.1,66.0,66,29.93,10.0,NNW,9.2,-,N/A,,Mostly Cloudy,340,2013-12-17 03:53:00
6:53 PM,78.1,66.9,68,29.94,10.0,NNW,11.5,-,N/A,,Scattered Clouds,330,2013-12-17 04:53:00
7:53 PM,77.0,66.9,71,29.96,10.0,NW,8.1,-,N/A,,Partly Cloudy,320,2013-12-17 05:53:00
8:53 PM,75.9,66.0,71,29.97,10.0,East,4.6,-,N/A,,Clear,90,2013-12-17 06:53:00
9:53 PM,75.0,64.0,69,29.98,10.0,East,5.8,-,N/A,,Clear,100,2013-12-17 07:53:00
10:53 PM,75.0,63.0,66,29.98,10.0,ENE,3.5,-,N/A,,Clear,60,2013-12-17 08:53:00
11:53 PM,72.0,62.1,71,29.97,10.0,NNE,4.6,-,N/A,,Clear,30,2013-12-17 09:53:00